createdAt,value
2023-03-22T00:04:05.691Z,76.60
2023-03-22T00:07:10.868Z,75.00
2023-03-22T00:10:01.680Z,78.90
2023-03-22T00:12:35.445Z,80.80
2023-03-22T00:15:09.798Z,80.70
2023-03-22T00:18:13.233Z,84.20
2023-03-22T00:21:04.153Z,85.00
2023-03-22T00:23:56.181Z,87.10
2023-03-22T00:27:05.200Z,84.30
2023-03-22T00:29:59.249Z,78.60
2023-03-22T00:33:09.052Z,77.30
2023-03-22T00:35:42.812Z,76.50
2023-03-22T00:38:44.233Z,80.70
2023-03-22T00:41:16.628Z,82.40
2023-03-22T00:43:46.936Z,79.30
2023-03-22T00:46:16.756Z,77.90
2023-03-22T00:48:44.823Z,77.50
2023-03-22T00:51:41.523Z,80.50
2023-03-22T00:54:09.490Z,78.10
2023-03-22T00:56:38.421Z,79.50
2023-03-22T00:59:14.032Z,75.90
2023-03-22T01:01:43.583Z,77.00
2023-03-22T01:04:18.122Z,74.70
2023-03-22T01:06:47.275Z,77.80
2023-03-22T01:09:15.502Z,79.00
2023-03-22T01:11:44.152Z,77.30
2023-03-22T01:14:14.076Z,81.10
2023-03-22T01:16:42.251Z,82.70
2023-03-22T01:19:10.895Z,82.60
2023-03-22T01:21:39.330Z,84.40
2023-03-22T01:24:07.628Z,82.60
2023-03-22T01:26:35.928Z,81.20
2023-03-22T01:29:04.022Z,82.80
2023-03-22T01:31:32.084Z,82.90
2023-03-22T01:34:00.346Z,82.90
2023-03-22T01:36:28.642Z,84.90
2023-03-22T01:38:56.855Z,85.00
2023-03-22T01:41:25.554Z,83.70
2023-03-22T01:44:12.857Z,84.10
2023-03-22T01:46:42.632Z,83.70
2023-03-22T01:49:17.596Z,77.20
2023-03-22T01:51:55.962Z,80.20
2023-03-22T01:54:47.503Z,80.20
2023-03-22T01:57:39.865Z,85.40
2023-03-22T02:00:16.080Z,84.50
2023-03-22T02:03:02.897Z,82.70
2023-03-22T02:05:57.202Z,76.80
2023-03-22T02:17:38.787Z,76.00
2023-03-22T02:22:59.405Z,71.40
2023-03-22T02:26:09.043Z,71.70
2023-03-22T02:29:12.735Z,70.50
2023-03-22T02:32:10.920Z,71.80
2023-03-22T02:34:54.085Z,69.90
2023-03-22T02:37:39.704Z,67.80
2023-03-22T02:41:37.000Z,66.90
2023-03-22T02:45:20.567Z,63.40
2023-03-22T02:47:49.923Z,62.00
2023-03-22T02:50:53.673Z,64.30
2023-03-22T02:53:29.869Z,67.50
2023-03-22T02:56:21.391Z,66.30
2023-03-22T02:59:41.783Z,64.40
2023-03-22T03:02:17.475Z,65.50
2023-03-22T03:05:20.781Z,61.70
2023-03-22T03:07:54.805Z,58.90
2023-03-22T03:11:03.185Z,65.30
2023-03-22T03:14:10.213Z,61.50
2023-03-22T03:20:25.188Z,64.00
2023-03-22T03:23:38.174Z,60.50
2023-03-22T03:26:42.204Z,63.80
2023-03-22T03:29:54.698Z,60.70
2023-03-22T03:33:02.919Z,63.90
2023-03-22T03:36:14.030Z,66.40
2023-03-22T03:39:04.301Z,64.80
2023-03-22T03:42:20.000Z,63.80
2023-03-22T03:45:14.202Z,63.10
2023-03-22T03:48:05.227Z,64.00
2023-03-22T03:51:33.279Z,64.50
2023-03-22T03:54:30.215Z,81.90
2023-03-22T03:57:31.219Z,74.80
2023-03-22T04:03:27.864Z,62.30
2023-03-22T04:10:03.037Z,61.50
2023-03-22T04:15:38.837Z,66.40
2023-03-22T04:18:18.106Z,64.80
2023-03-22T04:21:28.081Z,64.80
2023-03-22T04:25:10.692Z,61.00
2023-03-22T04:28:18.971Z,64.00
2023-03-22T04:34:37.437Z,60.80
2023-03-22T04:37:35.201Z,62.10
2023-03-22T04:44:13.021Z,55.90
2023-03-22T04:46:54.571Z,57.30
2023-03-22T04:52:39.086Z,58.70
2023-03-22T05:02:21.261Z,55.80
2023-03-22T05:05:36.461Z,54.50
2023-03-22T05:11:20.482Z,53.70
2023-03-22T05:15:18.237Z,53.10
2023-03-22T05:17:46.574Z,56.30
2023-03-22T05:20:15.048Z,57.40
2023-03-22T05:22:45.531Z,53.20
2023-03-22T05:25:13.609Z,52.10
2023-03-22T05:27:44.621Z,56.20
2023-03-22T05:30:32.264Z,55.20
2023-03-22T05:33:04.927Z,61.30
2023-03-22T05:35:39.769Z,58.20
2023-03-22T05:38:10.154Z,57.40
2023-03-22T05:40:40.286Z,55.50
2023-03-22T05:43:08.378Z,52.30
2023-03-22T05:45:37.258Z,48.00
2023-03-22T05:48:12.621Z,51.30
2023-03-22T05:50:41.878Z,53.90
2023-03-22T05:53:11.735Z,51.80
2023-03-22T05:55:53.247Z,47.60
2023-03-22T05:58:21.300Z,46.90
2023-03-22T06:00:51.478Z,44.90
2023-03-22T06:03:23.495Z,45.30
2023-03-22T06:06:01.392Z,46.40
2023-03-22T06:08:43.805Z,47.20
2023-03-22T06:11:11.758Z,49.40
2023-03-22T06:13:40.163Z,48.70
2023-03-22T06:16:08.785Z,45.40
2023-03-22T06:18:40.806Z,47.50
2023-03-22T06:21:11.703Z,49.20
2023-03-22T06:24:08.579Z,50.40
2023-03-22T06:26:36.600Z,51.60
2023-03-22T06:30:20.138Z,52.60
2023-03-22T06:33:08.452Z,54.30
2023-03-22T06:35:39.039Z,51.60
2023-03-22T06:38:07.389Z,52.50
2023-03-22T06:40:37.334Z,48.60
2023-03-22T06:43:07.306Z,50.20
2023-03-22T06:45:36.793Z,47.40
2023-03-22T06:48:05.553Z,47.40
2023-03-22T06:50:42.937Z,51.90
2023-03-22T06:53:14.968Z,48.10
2023-03-22T06:55:43.160Z,45.40
2023-03-22T06:58:13.492Z,45.00
2023-03-22T07:00:41.731Z,46.00
2023-03-22T07:03:10.347Z,47.20
2023-03-22T07:05:45.066Z,48.30
2023-03-22T07:08:13.100Z,49.90
2023-03-22T07:10:52.603Z,47.20
2023-03-22T07:16:02.301Z,46.10
2023-03-22T07:19:18.583Z,43.60
2023-03-22T07:21:47.769Z,48.30
2023-03-22T07:24:16.633Z,48.40
2023-03-22T07:26:46.611Z,47.50
2023-03-22T07:29:18.140Z,47.90
2023-03-22T07:31:46.262Z,45.90
2023-03-22T07:34:23.036Z,49.30
2023-03-22T07:37:03.155Z,51.90
2023-03-22T07:39:31.468Z,52.30
2023-03-22T07:41:59.661Z,50.40
2023-03-22T07:44:27.880Z,51.60
2023-03-22T07:47:14.290Z,51.30
2023-03-22T07:50:15.085Z,48.70
2023-03-22T07:52:45.625Z,50.80
2023-03-22T07:55:14.927Z,53.20
2023-03-22T07:57:43.560Z,56.00
2023-03-22T08:00:12.333Z,56.10
2023-03-22T08:02:59.822Z,52.10
2023-03-22T08:06:14.447Z,52.60
2023-03-22T08:09:05.247Z,50.40
2023-03-22T08:11:33.164Z,52.10
2023-03-22T08:14:05.722Z,58.20
2023-03-22T08:16:35.356Z,56.20
2023-03-22T08:19:04.145Z,58.70
2023-03-22T08:21:57.909Z,55.70
2023-03-22T08:24:58.057Z,54.40
2023-03-22T08:27:29.218Z,52.30
2023-03-22T08:29:59.077Z,52.50
2023-03-22T08:32:28.485Z,48.10
2023-03-22T08:34:56.596Z,45.70
2023-03-22T08:37:24.581Z,44.90
2023-03-22T08:39:53.166Z,44.70
2023-03-22T08:42:32.505Z,44.90
2023-03-22T08:45:00.624Z,44.40
2023-03-22T08:47:29.713Z,40.50
2023-03-22T08:50:00.620Z,39.00
2023-03-22T08:52:54.932Z,35.50
2023-03-22T08:55:27.644Z,36.30
2023-03-22T08:58:16.587Z,36.90
2023-03-22T09:01:42.600Z,38.70
2023-03-22T09:04:11.667Z,37.70
2023-03-22T09:06:43.014Z,38.50
2023-03-22T09:09:13.271Z,38.50
2023-03-22T09:11:42.961Z,37.60
2023-03-22T09:14:11.154Z,38.00
2023-03-22T09:16:39.379Z,38.30
2023-03-22T09:19:07.473Z,37.30
2023-03-22T09:21:36.007Z,34.50
2023-03-22T09:24:15.826Z,29.80
2023-03-22T09:26:47.244Z,28.40
2023-03-22T09:29:17.338Z,30.20
2023-03-22T09:31:48.894Z,29.20
2023-03-22T09:34:23.353Z,28.40
2023-03-22T09:36:52.994Z,28.90
2023-03-22T09:39:22.956Z,29.70
2023-03-22T09:41:57.696Z,30.20
2023-03-22T09:45:27.181Z,31.20
2023-03-22T09:47:56.636Z,34.10
2023-03-22T09:50:29.199Z,30.30
2023-03-22T09:52:58.814Z,31.10
2023-03-22T09:55:29.693Z,29.40
2023-03-22T09:58:12.543Z,30.90
2023-03-22T10:00:45.816Z,31.60
2023-03-22T10:03:27.508Z,31.40
2023-03-22T10:06:05.420Z,29.20
2023-03-22T10:09:00.508Z,29.90
2023-03-22T10:14:27.976Z,32.10
2023-03-22T10:16:59.217Z,29.70
2023-03-22T10:19:49.852Z,29.40
2023-03-22T10:22:25.118Z,25.30
2023-03-22T10:24:54.043Z,25.90
2023-03-22T10:27:23.688Z,23.10
2023-03-22T10:29:57.094Z,21.10
2023-03-22T10:32:56.696Z,23.40
2023-03-22T10:35:26.223Z,23.00
2023-03-22T10:37:58.039Z,19.60
2023-03-22T10:40:32.611Z,17.10
2023-03-22T10:43:23.743Z,25.70
2023-03-22T10:45:54.203Z,20.80
2023-03-22T10:48:27.793Z,22.00
2023-03-22T10:50:58.758Z,21.80
2023-03-22T10:54:00.110Z,27.90
2023-03-22T10:56:28.281Z,21.80
2023-03-22T10:58:57.371Z,18.30
2023-03-22T11:01:31.649Z,18.50
2023-03-22T11:03:59.710Z,17.40
2023-03-22T11:06:37.097Z,17.30
2023-03-22T11:09:15.756Z,17.10
2023-03-22T11:11:54.703Z,16.00
2023-03-22T11:14:25.608Z,15.70
2023-03-22T11:16:55.936Z,16.00
2023-03-22T11:19:28.134Z,14.90
2023-03-22T11:21:57.577Z,14.40
2023-03-22T11:24:32.206Z,14.90
2023-03-22T11:27:38.923Z,15.40
2023-03-22T11:30:25.268Z,15.60
2023-03-22T11:33:08.544Z,15.60
2023-03-22T11:35:38.778Z,15.70
2023-03-22T11:38:07.750Z,14.40
2023-03-22T11:40:37.006Z,15.00
2023-03-22T11:43:45.201Z,15.50
2023-03-22T11:46:13.205Z,16.60
2023-03-22T11:48:45.742Z,16.60
2023-03-22T11:51:19.136Z,15.20
2023-03-22T11:53:48.740Z,16.00
2023-03-22T11:56:21.966Z,16.30
2023-03-22T11:59:09.145Z,19.40
2023-03-22T12:01:51.393Z,16.60
2023-03-22T12:04:25.474Z,15.60
2023-03-22T12:09:35.895Z,11.20
2023-03-22T12:12:06.029Z,11.70
2023-03-22T12:14:55.059Z,12.50
2023-03-22T12:17:40.956Z,13.30
2023-03-22T12:20:40.067Z,12.70
2023-03-22T12:23:24.143Z,12.80
2023-03-22T12:26:00.249Z,13.40
2023-03-22T12:28:58.695Z,15.00
2023-03-22T12:31:38.950Z,12.70
2023-03-22T12:34:14.819Z,13.50
2023-03-22T12:36:47.623Z,11.10
2023-03-22T12:39:28.787Z,11.00
2023-03-22T12:42:27.352Z,12.20
2023-03-22T12:45:05.387Z,11.20
2023-03-22T12:47:42.501Z,12.60
2023-03-22T12:50:13.561Z,11.60
2023-03-22T12:52:57.165Z,10.10
2023-03-22T12:55:30.961Z,10.30
2023-03-22T12:57:59.562Z,10.50
2023-03-22T13:00:45.140Z,11.70
2023-03-22T13:03:16.474Z,11.30
2023-03-22T13:05:46.976Z,10.30
2023-03-22T13:08:23.098Z,10.60
2023-03-22T13:10:57.478Z,10.80
2023-03-22T13:13:25.650Z,10.30
2023-03-22T13:16:01.985Z,10.30
2023-03-22T13:18:35.989Z,9.90
2023-03-22T13:21:26.604Z,8.80
2023-03-22T13:24:15.612Z,7.10
2023-03-22T13:26:48.291Z,7.70
2023-03-22T13:29:35.130Z,6.40
2023-03-22T13:32:30.000Z,6.80
2023-03-22T13:34:58.091Z,6.60
2023-03-22T13:37:35.097Z,7.10
2023-03-22T13:40:25.984Z,7.80
2023-03-22T13:43:30.446Z,8.30
2023-03-22T13:46:03.945Z,9.20
2023-03-22T13:48:43.809Z,9.50
2023-03-22T13:51:19.046Z,6.50
2023-03-22T13:54:03.580Z,7.20
2023-03-22T13:56:54.517Z,6.40
2023-03-22T13:59:29.782Z,8.70
2023-03-22T14:02:24.892Z,7.10
2023-03-22T14:04:56.203Z,8.30
2023-03-22T14:07:39.053Z,9.30
2023-03-22T14:10:46.325Z,7.70
2023-03-22T14:13:19.523Z,7.40
2023-03-22T14:15:54.066Z,6.30
2023-03-22T14:18:32.955Z,7.20
2023-03-22T14:21:05.864Z,7.60
